Flight Track Log - Related Links

Times and Time Zones

All times are in EDT time to prevent confusion due to time zone crossing. See the WIG7117 flight status page for this flight to view local times or setup timezone preferences in your user account.


Time Position Orientation Groundspeed Altitude Reporting Facility
EDT Latitude Longitude Course Direction KTS MPH feet Rate Location/Type
Fri 09:10:51 PM 42.7569 -73.8058 337° Northwest 70 81 800  Level Boston Center
Fri 09:11:51 PM 42.7775 -73.8175 337° Northwest 90 104 2,000 1,140 Climbing Boston Center
Fri 09:12:52 PM 42.7961 -73.8492 309° West 96 110 3,100 1,087 Climbing Boston Center
Fri 09:13:58 PM 42.8164 -73.8892 305° West 129 148 4,300 1,134 Climbing Boston Center
Fri 09:14:59 PM 42.8347 -73.9264 304° West 125 144 5,500 1,230 Climbing Boston Center
Fri 09:16:00 PM 42.8508 -73.9694 297° West 122 140 6,800 1,240 Climbing Boston Center
Fri 09:17:00 PM 42.8667 -74.0122 297° West 119 137 8,000 545 Climbing Boston Center
Fri 09:18:01 PM 42.8808 -74.0608 292° West 157 181 7,900  Descending Boston Center
Fri 09:19:02 PM 42.8861 -74.1175 277° West 159 183 8,000 50 Climbing Boston Center
Fri 09:20:02 PM 42.8936 -74.1772 280° West 152 175 8,000  Level Boston Center
Fri 09:21:03 PM 42.9011 -74.2342 280° West 154 177 8,000  Level Boston Center
Fri 09:22:37 PM 42.9100 -74.3308 277° West 154 177 8,000  Level Boston Center
Fri 09:23:38 PM 42.9172 -74.3878 280° West 154 177 8,000  Level Boston Center
Fri 09:24:38 PM 42.9244 -74.4475 279° West 156 180 8,000  Level Boston Center
Fri 09:25:33 PM 42.9319 -74.4989 281° West 157 181 8,000  Level Boston Center
Fri 09:26:33 PM 42.9392 -74.5558 280° West 156 180 8,000  Level Boston Center
Fri 09:27:34 PM 42.9464 -74.6156 279° West 159 183 8,000  Level Boston Center
Fri 09:28:37 PM 42.9517 -74.6783 277° West 162 186 8,000  Level Boston Center
Fri 09:29:29 PM 42.9589 -74.7325 280° West 162 186 8,000  Level Boston Center
Fri 09:30:30 PM 42.9658 -74.7981 278° West 163 188 8,000  Level Boston Center
Fri 09:31:30 PM 42.9708 -74.8578 277° West 163 188 8,000  Level Boston Center
Fri 09:32:31 PM 42.9800 -74.9178 282° West 165 190 8,000  Level Boston Center
Fri 09:33:32 PM 42.9869 -74.9806 279° West 165 190 8,000  Level Boston Center
Fri 09:34:26 PM 42.9961 -75.0347 283° West 165 190 8,000  Level Boston Center
Fri 09:35:27 PM 43.0028 -75.1003 278° West 162 186 8,000  Level Boston Center
Fri 09:36:28 PM 43.0078 -75.1603 277° West 161 185 8,000  Level Boston Center
Fri 09:37:34 PM 43.0186 -75.2261 283° West 162 186 8,000  Level Boston Center
Fri 09:38:35 PM 43.0233 -75.2889 276° West 162 186 8,000  Level Boston Center
Fri 09:39:35 PM 43.0322 -75.3489 281° West 162 186 8,000  Level Boston Center
Fri 09:40:36 PM 43.0369 -75.4117 276° West 162 186 8,000  Level Boston Center
Fri 09:41:31 PM 43.0439 -75.4603 281° West 161 185 8,000 -365 Level Boston Center
Fri 09:42:31 PM 43.0506 -75.5289 278° West 162 186 7,300 -793 Descending Boston Center
Fri 09:43:32 PM 43.0569 -75.6003 277° West 186 214 6,400 -893 Descending Boston Center
Fri 09:44:32 PM 43.0653 -75.6689 279° West 191 220 5,500 -843 Descending Boston Center
Fri 09:45:33 PM 43.0717 -75.7403 277° West 193 222 4,700 -738 Descending Boston Center
Fri 09:46:34 PM 43.0819 -75.8119 281° West 191 220 4,000 -595 Descending Boston Center
Fri 09:47:34 PM 43.0883 -75.8775 278° West 176 203 3,500 -744 Descending Boston Center
Fri 09:48:35 PM 43.1053 -75.9439 289° West 186 214 2,500 -934 Descending Boston Center
Fri 09:49:36 PM 43.1114 -76.0125 277° West 167 192 1,600 -843 Descending Boston Center
Fri 09:50:36 PM 43.1094 -76.0750 268° West 160 184 800 -800 Descending Boston Center
Fri 09:52:00 PM 43.1000 -76.1000 270° West  Level FlightAware Approximate
Fri 09:59:00 PM 43.1112 -76.1063 270° West  Level Estimated
Fri 10:00:00 PM 43.1112 -76.1063 270° West  Level Estimated
Fri 10:01:00 PM 43.1112 -76.1063 270° West  Level Estimated
Fri 10:02:00 PM 43.1112 -76.1063 270° West  Level Estimated
Fri 10:03:00 PM 43.1112 -76.1063 270° West  Level Estimated
Fri 10:04:00 PM 43.1112 -76.1063 270° West  Level Estimated
Fri 10:05:00 PM 43.1112 -76.1063 270° West  Level Estimated
Fri 10:06:00 PM 43.1112 -76.1063 270° West  Level Estimated

Login

Don't have an account? Register now (free) for customized features, flight alerts, and more!